createdAt,value
2023-03-17T00:04:19.890Z,35.24
2023-03-17T00:06:47.873Z,35.08
2023-03-17T00:10:06.715Z,35.25
2023-03-17T00:12:34.210Z,35.08
2023-03-17T00:15:06.819Z,35.83
2023-03-17T00:17:59.863Z,35.46
2023-03-17T00:20:31.580Z,35.74
2023-03-17T00:23:25.806Z,35.04
2023-03-17T00:25:54.514Z,35.16
2023-03-17T00:28:25.306Z,35.46
2023-03-17T00:30:59.535Z,35.58
2023-03-17T00:34:22.565Z,35.09
2023-03-17T00:36:51.775Z,35.74
2023-03-17T00:39:19.978Z,35.31
2023-03-17T00:41:50.459Z,35.27
2023-03-17T00:44:18.748Z,35.33
2023-03-17T00:50:52.709Z,35.08
2023-03-17T00:57:28.133Z,35.54
2023-03-17T00:59:55.583Z,36.06
2023-03-17T01:02:23.458Z,36.11
2023-03-17T01:05:05.751Z,35.96
2023-03-17T01:07:35.464Z,36.35
2023-03-17T01:10:29.054Z,35.99
2023-03-17T01:12:59.090Z,36.30
2023-03-17T01:15:31.955Z,36.75
2023-03-17T01:18:01.805Z,36.64
2023-03-17T01:20:54.290Z,36.57
2023-03-17T01:24:11.844Z,36.68
2023-03-17T01:27:05.304Z,36.23
2023-03-17T01:30:48.666Z,36.98
2023-03-17T01:33:46.514Z,37.20
2023-03-17T01:36:14.119Z,37.77
2023-03-17T01:38:42.436Z,38.38
2023-03-17T01:41:10.758Z,38.31
2023-03-17T01:48:09.407Z,38.61
2023-03-17T01:56:13.262Z,39.18
2023-03-17T01:59:30.878Z,39.45
2023-03-17T02:16:47.045Z,40.21
2023-03-17T02:19:17.385Z,39.96
2023-03-17T02:21:47.988Z,40.13
2023-03-17T02:24:40.833Z,40.24
2023-03-17T02:27:16.307Z,41.25
2023-03-17T02:34:36.921Z,40.93
2023-03-17T02:37:05.985Z,40.95
2023-03-17T02:39:36.545Z,41.42
2023-03-17T02:47:11.048Z,41.00
2023-03-17T02:49:41.354Z,41.65
2023-03-17T02:52:09.545Z,41.29
2023-03-17T02:54:37.059Z,41.74
2023-03-17T02:57:04.683Z,41.09
2023-03-17T02:59:32.164Z,41.57
2023-03-17T03:01:59.613Z,41.73
2023-03-17T03:04:32.957Z,42.08
2023-03-17T03:12:14.572Z,42.03
2023-03-17T03:19:50.795Z,41.91
2023-03-17T03:22:18.261Z,42.28
2023-03-17T03:24:45.824Z,42.90
2023-03-17T03:27:13.275Z,42.24
2023-03-17T03:29:42.042Z,42.14
2023-03-17T03:32:09.530Z,42.34
2023-03-17T03:34:37.039Z,42.40
2023-03-17T03:37:04.515Z,42.27
2023-03-17T03:39:32.181Z,42.89
2023-03-17T03:41:59.582Z,42.70
2023-03-17T03:44:27.029Z,42.70
2023-03-17T03:46:54.478Z,42.42
2023-03-17T03:49:22.912Z,42.91
2023-03-17T03:51:50.727Z,42.67
2023-03-17T03:54:18.087Z,42.63
2023-03-17T03:56:45.557Z,43.40
2023-03-17T03:59:13.086Z,42.92
2023-03-17T04:01:40.464Z,42.89
2023-03-17T04:04:11.171Z,42.95
2023-03-17T04:06:38.931Z,42.68
2023-03-17T04:09:06.636Z,42.98
2023-03-17T04:11:34.142Z,43.39
2023-03-17T04:18:12.110Z,42.61
2023-03-17T04:24:10.524Z,41.98
2023-03-17T04:26:38.031Z,41.99
2023-03-17T04:29:08.369Z,42.45
2023-03-17T04:31:37.163Z,42.26
2023-03-17T04:34:04.684Z,41.50
2023-03-17T04:36:32.128Z,41.72
2023-03-17T04:38:59.513Z,41.33
2023-03-17T04:41:26.923Z,41.82
2023-03-17T04:43:54.373Z,41.50
2023-03-17T04:46:22.306Z,40.87
2023-03-17T04:48:49.814Z,41.05
2023-03-17T04:51:17.419Z,40.44
2023-03-17T04:53:45.732Z,40.49
2023-03-17T04:56:14.678Z,40.65
2023-03-17T04:58:51.443Z,40.22
2023-03-17T05:01:26.335Z,39.72
2023-03-17T05:03:59.854Z,39.95
2023-03-17T05:06:32.170Z,39.88
2023-03-17T05:09:01.721Z,40.20
2023-03-17T05:11:31.401Z,39.93
2023-03-17T05:13:59.152Z,40.05
2023-03-17T05:16:27.617Z,39.96
2023-03-17T05:18:55.780Z,40.08
2023-03-17T05:21:26.948Z,40.20
2023-03-17T05:23:56.537Z,40.58
2023-03-17T05:26:24.483Z,40.90
2023-03-17T05:28:52.139Z,40.35
2023-03-17T05:31:20.518Z,40.22
2023-03-17T05:33:51.944Z,40.59
2023-03-17T05:36:19.977Z,41.09
2023-03-17T05:38:50.190Z,40.82
2023-03-17T05:41:19.036Z,40.32
2023-03-17T05:43:59.579Z,40.39
2023-03-17T05:46:30.356Z,40.14
2023-03-17T05:49:00.105Z,40.44
2023-03-17T05:51:32.243Z,41.25
2023-03-17T05:54:04.698Z,41.18
2023-03-17T05:56:38.125Z,41.31
2023-03-17T05:59:18.861Z,41.12
2023-03-17T06:01:50.517Z,40.99
2023-03-17T06:05:07.832Z,40.72
2023-03-17T06:07:54.029Z,40.89
2023-03-17T06:10:38.904Z,40.57
2023-03-17T06:13:30.597Z,40.23
2023-03-17T06:16:26.179Z,39.52
2023-03-17T06:19:04.404Z,39.42
2023-03-17T06:21:33.608Z,38.84
2023-03-17T06:24:01.583Z,38.79
2023-03-17T06:26:39.883Z,38.58
2023-03-17T06:29:13.488Z,38.70
2023-03-17T06:31:53.774Z,38.30
2023-03-17T06:34:25.822Z,38.41
2023-03-17T06:37:30.103Z,37.59
2023-03-17T06:40:08.539Z,37.65
2023-03-17T06:42:52.345Z,37.81
2023-03-17T06:45:23.042Z,37.98
2023-03-17T06:47:53.083Z,37.42
2023-03-17T06:50:22.682Z,37.28
2023-03-17T06:52:51.284Z,37.86
2023-03-17T06:55:19.957Z,37.13
2023-03-17T06:57:53.035Z,37.74
2023-03-17T07:00:22.958Z,37.86
2023-03-17T07:02:51.958Z,36.92
2023-03-17T07:05:19.978Z,37.16
2023-03-17T07:07:48.632Z,37.17
2023-03-17T07:10:46.185Z,36.86
2023-03-17T07:13:13.961Z,36.67
2023-03-17T07:15:42.362Z,36.39
2023-03-17T07:18:12.644Z,36.52
2023-03-17T07:20:41.651Z,36.66
2023-03-17T07:23:22.241Z,36.23
2023-03-17T07:25:51.425Z,36.71
2023-03-17T07:28:24.550Z,36.86
2023-03-17T07:30:59.083Z,36.57
2023-03-17T07:33:42.405Z,36.65
2023-03-17T07:36:11.446Z,36.93
2023-03-17T07:38:39.396Z,36.55
2023-03-17T07:41:15.074Z,36.52
2023-03-17T07:43:50.376Z,36.02
2023-03-17T07:46:18.496Z,36.64
2023-03-17T07:54:57.599Z,36.45
2023-03-17T07:57:28.659Z,36.27
2023-03-17T07:59:56.559Z,35.85
2023-03-17T08:02:37.564Z,35.98
2023-03-17T08:05:10.127Z,35.99
2023-03-17T08:08:00.431Z,35.84
2023-03-17T08:10:38.516Z,36.22
2023-03-17T08:13:15.092Z,36.46
2023-03-17T08:15:43.707Z,37.07
2023-03-17T08:18:35.202Z,36.76
2023-03-17T08:21:24.245Z,36.95
2023-03-17T08:24:28.999Z,36.63
2023-03-17T08:27:09.541Z,36.85
2023-03-17T08:29:59.327Z,36.72
2023-03-17T08:35:58.906Z,37.59
2023-03-17T08:39:06.352Z,36.88
2023-03-17T08:41:34.369Z,36.82
2023-03-17T08:44:05.224Z,36.90
2023-03-17T08:46:34.410Z,37.26
2023-03-17T08:49:03.781Z,36.95
2023-03-17T08:51:35.039Z,36.65
2023-03-17T08:54:04.332Z,36.61
2023-03-17T08:56:32.538Z,36.77
2023-03-17T08:59:03.847Z,36.75
2023-03-17T09:01:33.363Z,36.77
2023-03-17T09:04:02.206Z,36.63
2023-03-17T09:06:30.760Z,35.79
2023-03-17T09:09:02.800Z,36.58
2023-03-17T09:11:33.109Z,36.75
2023-03-17T09:14:01.187Z,36.93
2023-03-17T09:16:29.800Z,36.70
2023-03-17T09:19:00.593Z,36.33
2023-03-17T09:21:42.125Z,36.36
2023-03-17T09:24:10.876Z,36.93
2023-03-17T09:26:39.198Z,36.50
2023-03-17T09:29:20.499Z,36.64
2023-03-17T09:31:49.989Z,36.55
2023-03-17T09:34:21.301Z,36.83
2023-03-17T09:36:50.851Z,37.05
2023-03-17T09:39:18.847Z,36.63
2023-03-17T09:42:15.666Z,36.69
2023-03-17T09:45:24.164Z,37.08
2023-03-17T09:48:01.331Z,36.61
2023-03-17T09:50:50.549Z,36.88
2023-03-17T09:53:36.368Z,36.86
2023-03-17T09:56:12.780Z,36.35
2023-03-17T09:59:06.282Z,37.15
2023-03-17T10:01:35.023Z,36.91
2023-03-17T10:04:03.079Z,36.77
2023-03-17T10:06:39.467Z,36.66
2023-03-17T10:09:43.915Z,36.75
2023-03-17T10:12:41.611Z,36.60
2023-03-17T10:15:25.401Z,36.92
2023-03-17T10:17:55.654Z,36.43
2023-03-17T10:20:38.314Z,36.28
2023-03-17T10:23:12.597Z,36.59
2023-03-17T10:25:41.822Z,36.88
2023-03-17T10:28:26.352Z,36.73
2023-03-17T10:30:55.237Z,36.31
2023-03-17T10:33:24.478Z,36.57
2023-03-17T10:35:52.477Z,36.54
2023-03-17T10:38:24.935Z,36.10
2023-03-17T10:41:02.888Z,36.26
2023-03-17T10:43:59.978Z,36.25
2023-03-17T10:46:30.209Z,36.03
2023-03-17T10:49:08.987Z,35.93
2023-03-17T10:51:40.993Z,35.94
2023-03-17T10:55:25.231Z,35.78
2023-03-17T11:02:28.292Z,35.96
2023-03-17T11:05:06.424Z,36.04
2023-03-17T11:07:42.522Z,35.86
2023-03-17T11:10:24.812Z,35.72
2023-03-17T11:13:18.234Z,36.03
2023-03-17T11:16:22.584Z,35.77
2023-03-17T11:18:55.395Z,35.51
2023-03-17T11:21:31.640Z,35.25
2023-03-17T11:24:13.117Z,35.87
2023-03-17T11:27:25.767Z,35.86
2023-03-17T11:30:05.659Z,35.71
2023-03-17T11:32:59.347Z,35.36
2023-03-17T11:44:06.671Z,35.56
2023-03-17T11:47:28.833Z,35.41
2023-03-17T11:50:07.797Z,35.57
2023-03-17T11:53:51.083Z,35.46
2023-03-17T11:56:29.250Z,35.58
2023-03-17T11:59:03.538Z,36.11
2023-03-17T12:01:46.100Z,35.69
2023-03-17T12:04:48.251Z,35.81
2023-03-17T12:07:21.017Z,35.97
2023-03-17T12:10:00.455Z,35.61
2023-03-17T12:12:38.879Z,35.55
2023-03-17T12:15:15.287Z,35.77
2023-03-17T12:17:59.813Z,35.59
2023-03-17T12:21:19.428Z,35.20
2023-03-17T12:24:41.942Z,35.60
2023-03-17T12:27:20.054Z,35.88
2023-03-17T12:30:17.101Z,35.64
2023-03-17T12:33:13.229Z,35.94
2023-03-17T12:35:41.128Z,35.83
2023-03-17T12:39:07.093Z,35.79
2023-03-17T12:42:14.022Z,36.15
2023-03-17T12:45:13.808Z,36.38
2023-03-17T12:48:03.441Z,36.41
2023-03-17T12:59:58.453Z,36.83
2023-03-17T13:02:30.145Z,36.68
2023-03-17T13:19:27.678Z,37.16
2023-03-17T13:31:12.017Z,37.52
2023-03-17T13:33:56.956Z,37.96
2023-03-17T13:36:54.945Z,37.87
2023-03-17T13:39:54.950Z,38.12
2023-03-17T13:42:48.909Z,40.01
2023-03-17T13:45:23.355Z,40.99
2023-03-17T13:47:52.745Z,41.40
2023-03-17T13:50:33.084Z,42.55
2023-03-17T13:53:31.564Z,43.04
2023-03-17T13:56:27.557Z,44.16
2023-03-17T13:59:07.766Z,44.63
2023-03-17T14:01:58.667Z,45.04
2023-03-17T14:05:17.712Z,45.32
2023-03-17T14:07:49.700Z,46.24
2023-03-17T14:10:20.695Z,45.48
2023-03-17T14:13:26.648Z,46.33
2023-03-17T14:16:06.621Z,46.11
2023-03-17T14:18:38.039Z,46.00
2023-03-17T14:21:11.756Z,46.58
2023-03-17T14:23:39.527Z,46.57
2023-03-17T14:26:12.142Z,46.91
2023-03-17T14:28:40.065Z,46.84
2023-03-17T14:31:08.432Z,46.74
2023-03-17T14:33:41.907Z,46.49
2023-03-17T14:36:14.532Z,46.57
2023-03-17T14:38:49.314Z,46.87
2023-03-17T14:41:21.580Z,46.53
2023-03-17T14:43:52.481Z,46.46
2023-03-17T14:46:32.747Z,46.59
2023-03-17T14:49:21.416Z,46.77
2023-03-17T14:51:51.670Z,46.83
2023-03-17T14:54:24.560Z,46.57
2023-03-17T14:57:02.415Z,46.91
2023-03-17T14:59:34.773Z,46.80
2023-03-17T15:02:17.634Z,46.32
2023-03-17T15:04:59.140Z,46.72
2023-03-17T15:07:45.596Z,46.64
2023-03-17T15:10:18.957Z,46.58
2023-03-17T15:12:48.695Z,47.16
2023-03-17T15:15:26.947Z,46.80
2023-03-17T15:18:01.377Z,46.66
2023-03-17T15:20:32.094Z,47.35
2023-03-17T15:23:04.564Z,47.03
2023-03-17T15:25:32.202Z,47.50
2023-03-17T15:28:00.711Z,47.72
2023-03-17T15:30:37.449Z,47.72
2023-03-17T15:33:42.782Z,48.04
2023-03-17T15:36:31.397Z,48.22
2023-03-17T15:39:00.869Z,47.33
2023-03-17T15:41:28.585Z,47.79
2023-03-17T15:43:56.719Z,47.36
2023-03-17T15:46:31.982Z,47.61
2023-03-17T15:49:00.114Z,47.76
2023-03-17T15:51:27.616Z,47.52
2023-03-17T15:53:55.284Z,47.53
2023-03-17T15:56:22.805Z,47.63
2023-03-17T15:58:52.642Z,47.29
2023-03-17T16:01:21.164Z,47.88
2023-03-17T16:03:49.330Z,47.67
2023-03-17T16:06:20.109Z,47.89
2023-03-17T16:08:48.555Z,47.69
2023-03-17T16:11:30.016Z,47.81
2023-03-17T16:13:59.427Z,47.75
2023-03-17T16:16:36.223Z,47.83
2023-03-17T16:19:06.221Z,47.70
2023-03-17T16:21:33.819Z,47.95
2023-03-17T16:24:01.434Z,47.79
2023-03-17T16:26:29.011Z,47.80
2023-03-17T16:28:57.838Z,47.69
2023-03-17T16:31:30.464Z,47.72
2023-03-17T16:33:58.232Z,47.89
2023-03-17T16:36:26.190Z,47.75
2023-03-17T16:38:53.918Z,48.17
2023-03-17T16:41:27.750Z,48.12
2023-03-17T16:44:01.597Z,47.86
2023-03-17T16:46:34.891Z,48.33
2023-03-17T16:49:04.387Z,48.52
2023-03-17T16:51:32.212Z,48.16
2023-03-17T16:53:59.774Z,48.33
2023-03-17T16:56:27.852Z,48.47
2023-03-17T16:58:55.507Z,48.49
2023-03-17T17:01:26.448Z,48.68
2023-03-17T17:03:54.984Z,49.00
2023-03-17T17:06:24.084Z,48.79
2023-03-17T17:08:52.328Z,48.93
2023-03-17T17:11:20.652Z,48.55
2023-03-17T17:13:49.609Z,48.85
2023-03-17T17:16:29.415Z,49.27
2023-03-17T17:18:58.031Z,49.46
2023-03-17T17:21:26.617Z,49.46
2023-03-17T17:23:55.083Z,49.43
2023-03-17T17:26:23.611Z,49.81
2023-03-17T17:28:51.238Z,49.05
2023-03-17T17:31:18.925Z,48.99
2023-03-17T17:33:46.511Z,49.41
2023-03-17T17:36:16.791Z,49.78
2023-03-17T17:38:45.089Z,49.18
2023-03-17T17:41:13.966Z,49.49
2023-03-17T17:43:41.651Z,49.26
2023-03-17T17:46:15.973Z,49.15
2023-03-17T17:48:43.745Z,49.39
2023-03-17T17:51:11.192Z,49.45
2023-03-17T17:53:38.744Z,49.33
2023-03-17T17:56:07.315Z,49.31
2023-03-17T17:58:34.913Z,49.54
2023-03-17T18:01:04.722Z,49.97
2023-03-17T18:03:32.305Z,49.66
2023-03-17T18:06:01.139Z,49.69
2023-03-17T18:08:28.678Z,49.94
2023-03-17T18:10:57.531Z,50.16
2023-03-17T18:13:25.500Z,50.01
2023-03-17T18:15:53.243Z,50.36
2023-03-17T18:18:20.824Z,50.25
2023-03-17T18:20:48.524Z,50.36
2023-03-17T18:23:16.840Z,49.99
2023-03-17T18:25:44.342Z,50.00
2023-03-17T18:28:12.048Z,50.41
2023-03-17T18:30:39.751Z,50.61
2023-03-17T18:33:17.165Z,50.98
2023-03-17T18:35:47.698Z,51.01
2023-03-17T18:38:15.499Z,50.86
2023-03-17T18:40:43.902Z,51.10
2023-03-17T18:43:11.428Z,50.80
2023-03-17T18:45:39.182Z,51.09
2023-03-17T18:48:07.209Z,51.51
2023-03-17T18:50:37.326Z,51.55
2023-03-17T18:53:04.903Z,51.96
2023-03-17T18:55:32.497Z,51.32
2023-03-17T18:58:00.140Z,51.16
2023-03-17T19:00:27.982Z,51.47
2023-03-17T19:02:55.771Z,51.68
2023-03-17T19:05:23.647Z,51.32
2023-03-17T19:07:51.237Z,51.60
2023-03-17T19:10:19.354Z,51.21
2023-03-17T19:12:47.584Z,51.56
2023-03-17T19:15:15.610Z,51.91
2023-03-17T19:17:43.290Z,51.94
2023-03-17T19:20:12.744Z,51.78
2023-03-17T19:22:40.897Z,51.24
2023-03-17T19:25:08.976Z,51.59
2023-03-17T19:27:36.768Z,51.48
2023-03-17T19:30:05.854Z,51.39
2023-03-17T19:32:33.629Z,51.43
2023-03-17T19:35:01.333Z,51.57
2023-03-17T19:37:29.972Z,51.65
2023-03-17T19:39:57.697Z,51.58
2023-03-17T19:42:26.147Z,51.70
2023-03-17T19:44:53.792Z,51.70
2023-03-17T19:47:21.509Z,51.70
2023-03-17T19:49:49.104Z,51.56
2023-03-17T19:52:16.779Z,51.40
2023-03-17T19:54:46.322Z,51.23
2023-03-17T19:57:21.103Z,51.18
2023-03-17T19:59:48.773Z,51.37
2023-03-17T20:02:17.220Z,51.44
2023-03-17T20:04:45.059Z,51.41
2023-03-17T20:07:12.718Z,51.38
2023-03-17T20:09:40.228Z,51.38
2023-03-17T20:12:08.025Z,51.23
2023-03-17T20:14:35.538Z,51.57
2023-03-17T20:17:03.213Z,51.40
2023-03-17T20:19:31.218Z,51.43
2023-03-17T20:21:58.830Z,51.57
2023-03-17T20:24:27.421Z,51.56
2023-03-17T20:26:57.544Z,51.42
2023-03-17T20:29:26.069Z,51.60
2023-03-17T20:31:53.950Z,51.77
2023-03-17T20:34:21.842Z,51.45
2023-03-17T20:36:49.662Z,51.69
2023-03-17T20:39:20.249Z,51.75
2023-03-17T20:41:51.884Z,52.29
2023-03-17T20:44:20.507Z,52.22
2023-03-17T20:46:48.364Z,52.61
2023-03-17T20:49:17.493Z,52.64
2023-03-17T20:51:46.676Z,52.70
2023-03-17T20:54:14.483Z,52.84
2023-03-17T20:56:45.878Z,52.78
2023-03-17T20:59:13.674Z,52.02
2023-03-17T21:01:42.802Z,52.55
2023-03-17T21:04:12.604Z,52.79
2023-03-17T21:06:41.684Z,52.94
2023-03-17T21:09:10.235Z,52.95
2023-03-17T21:11:41.272Z,52.73
2023-03-17T21:14:09.261Z,53.25
2023-03-17T21:16:37.483Z,53.41
2023-03-17T21:19:08.589Z,53.42
2023-03-17T21:21:37.060Z,53.05
2023-03-17T21:24:05.820Z,53.46
2023-03-17T21:26:33.520Z,53.52
2023-03-17T21:29:01.241Z,53.51
2023-03-17T21:31:29.375Z,53.78
2023-03-17T21:33:57.047Z,53.54
2023-03-17T21:36:24.754Z,53.37
2023-03-17T21:38:52.352Z,53.95
2023-03-17T21:41:31.266Z,53.97
2023-03-17T21:43:59.061Z,53.65
2023-03-17T21:46:26.804Z,54.09
2023-03-17T21:48:54.537Z,54.23
2023-03-17T21:51:22.531Z,54.70
2023-03-17T21:53:49.982Z,56.37
2023-03-17T21:56:17.480Z,56.45
2023-03-17T21:58:44.837Z,56.78
2023-03-17T22:01:12.582Z,55.91
2023-03-17T22:03:40.366Z,56.70
2023-03-17T22:06:09.270Z,56.76
2023-03-17T22:08:36.884Z,57.28
2023-03-17T22:11:17.390Z,57.44
2023-03-17T22:13:45.853Z,57.38
2023-03-17T22:16:14.325Z,57.56
2023-03-17T22:18:42.202Z,57.51
2023-03-17T22:21:10.393Z,57.78
2023-03-17T22:23:42.524Z,57.74
2023-03-17T22:26:15.547Z,58.14
2023-03-17T22:28:45.014Z,57.44
2023-03-17T22:31:23.485Z,58.37
2023-03-17T22:33:54.484Z,58.75
2023-03-17T22:36:23.143Z,59.78
2023-03-17T22:38:50.983Z,60.70
2023-03-17T22:41:21.164Z,60.84
2023-03-17T22:43:49.369Z,61.56
2023-03-17T22:46:18.080Z,61.75
2023-03-17T22:48:46.711Z,61.97
2023-03-17T22:51:18.364Z,62.15
2023-03-17T22:53:46.198Z,62.11
2023-03-17T22:56:16.002Z,62.59
2023-03-17T22:58:44.822Z,62.40
2023-03-17T23:01:14.023Z,62.81
2023-03-17T23:03:42.300Z,62.49
2023-03-17T23:06:10.238Z,62.63
2023-03-17T23:08:39.411Z,62.53
2023-03-17T23:11:13.944Z,63.36
2023-03-17T23:13:42.044Z,64.88
2023-03-17T23:16:10.211Z,66.62
2023-03-17T23:18:37.971Z,66.97
2023-03-17T23:21:07.091Z,67.40
2023-03-17T23:23:36.094Z,65.91
2023-03-17T23:26:04.566Z,65.89
2023-03-17T23:28:32.463Z,65.91
2023-03-17T23:31:00.297Z,65.28
2023-03-17T23:33:28.610Z,65.08
2023-03-17T23:35:56.654Z,64.76
2023-03-17T23:38:24.416Z,65.77
2023-03-17T23:40:55.847Z,64.71
2023-03-17T23:43:23.774Z,64.75
2023-03-17T23:45:53.372Z,65.09
2023-03-17T23:48:21.611Z,64.92
2023-03-17T23:50:51.330Z,64.74
2023-03-17T23:53:19.514Z,64.35
2023-03-17T23:55:47.809Z,64.28
2023-03-17T23:58:15.992Z,64.14
